Time;durP1;ratioP1;P1;durP2;ratioP2;P2;SDS_P1;SDS_P2;PMS_P1;PMS_P2;Temp;Humidity;BMP_temperature;BMP_pressure;BME280_temperature;BME280_humidity;BME280_pressure;Samples;Min_cycle;Max_cycle;Signal;HPM_P1;HPM_P2
2023/03/22 00:03:01;;;;;;;3.77;3.47;;;12.20;99.90;;;;;;10478495;28;20213;-80
2023/03/22 00:08:05;;;;;;;5.10;3.47;;;12.20;99.90;;;;;;10469624;28;20197;-80
2023/03/22 00:13:15;;;;;;;4.93;3.23;;;12.20;99.90;;;;;;10490102;28;20308;-80
2023/03/22 00:18:19;;;;;;;4.10;3.23;;;12.10;99.90;;;;;;10477585;28;20309;-81
2023/03/22 00:23:22;;;;;;;3.50;3.20;;;12.00;99.90;;;;;;10472746;28;20213;-80
2023/03/22 00:28:24;;;;;;;3.20;2.97;;;12.00;99.90;;;;;;10494848;28;20292;-81
2023/03/22 00:33:29;;;;;;;3.47;3.27;;;12.00;99.90;;;;;;10501571;28;20221;-81
2023/03/22 00:38:35;;;;;;;3.30;3.10;;;12.00;99.90;;;;;;10479966;28;20216;-81
2023/03/22 00:43:38;;;;;;;3.40;3.10;;;11.90;99.90;;;;;;10490954;28;20217;-81
2023/03/22 00:48:42;;;;;;;3.93;3.00;;;12.00;99.90;;;;;;10478821;28;20186;-80
2023/03/22 00:53:48;;;;;;;3.03;2.87;;;11.90;99.90;;;;;;10500031;28;20222;-81
2023/03/22 00:58:50;;;;;;;3.60;3.40;;;11.90;99.90;;;;;;10474010;28;20217;-80
2023/03/22 01:03:53;;;;;;;3.43;3.23;;;11.90;99.90;;;;;;10488198;28;20221;-80
2023/03/22 01:08:56;;;;;;;3.13;2.93;;;11.80;99.90;;;;;;10479784;28;20285;-81
2023/03/22 01:14:00;;;;;;;3.93;3.57;;;11.80;99.90;;;;;;10478278;28;20236;-81
2023/03/22 01:19:03;;;;;;;3.80;3.50;;;11.80;99.90;;;;;;10488137;28;20208;-81
2023/03/22 01:24:06;;;;;;;4.23;3.83;;;11.80;99.90;;;;;;10480760;28;20218;-81
2023/03/22 01:29:10;;;;;;;3.63;3.40;;;11.70;99.90;;;;;;10485909;28;20280;-81
2023/03/22 01:34:13;;;;;;;3.77;3.57;;;11.70;99.90;;;;;;10471102;28;20225;-81
2023/03/22 01:39:16;;;;;;;4.00;3.70;;;11.60;99.90;;;;;;10485462;28;20295;-81
2023/03/22 01:44:23;;;;;;;4.00;3.80;;;11.50;99.90;;;;;;10463772;28;20575;-82
2023/03/22 01:49:32;;;;;;;4.17;3.87;;;11.50;99.90;;;;;;10472209;28;20197;-79
2023/03/22 01:54:41;;;;;;;3.63;3.33;;;11.50;99.90;;;;;;10494242;28;20224;-80
2023/03/22 01:59:58;;;;;;;4.50;4.10;;;11.50;99.90;;;;;;10470923;28;20225;-80
2023/03/22 02:05:18;;;;;;;3.90;3.70;;;11.40;99.90;;;;;;10483579;28;20225;-80
2023/03/22 02:10:24;;;;;;;3.90;3.60;;;11.30;99.90;;;;;;10471309;28;20655;-79
2023/03/22 02:15:38;;;;;;;4.17;3.60;;;11.30;99.90;;;;;;10467772;28;20221;-80
2023/03/22 02:21:27;;;;;;;4.47;4.13;;;11.20;99.90;;;;;;10489067;28;20223;-81
2023/03/22 02:27:08;;;;;;;3.90;3.60;;;11.10;99.90;;;;;;10492856;28;20206;-79
2023/03/22 02:32:43;;;;;;;3.87;3.57;;;11.00;99.90;;;;;;10457352;28;20216;-80
2023/03/22 02:38:20;;;;;;;4.20;3.90;;;11.00;99.90;;;;;;10444203;28;20214;-79
2023/03/22 02:43:37;;;;;;;4.20;3.83;;;10.90;99.90;;;;;;10490391;28;20276;-81
2023/03/22 02:48:46;;;;;;;3.73;3.43;;;10.80;99.90;;;;;;10506284;28;20199;-78
2023/03/22 02:53:53;;;;;;;4.23;3.93;;;10.70;99.90;;;;;;10491987;28;20273;-80
2023/03/22 02:59:01;;;;;;;4.93;4.63;;;10.60;99.90;;;;;;10494234;28;20227;-80
2023/03/22 03:04:06;;;;;;;4.47;4.13;;;10.60;99.90;;;;;;10479327;28;20209;-81
2023/03/22 03:09:12;;;;;;;3.97;3.63;;;10.60;99.90;;;;;;10471426;28;20198;-79
2023/03/22 03:14:27;;;;;;;4.23;4.03;;;10.60;99.90;;;;;;10486798;28;20220;-79
2023/03/22 03:19:36;;;;;;;4.87;4.37;;;10.60;99.90;;;;;;10491255;28;20213;-80
2023/03/22 03:24:44;;;;;;;9.43;8.10;;;10.60;99.90;;;;;;10480428;28;20224;-80
2023/03/22 03:29:53;;;;;;;6.50;5.90;;;10.50;99.90;;;;;;10474401;28;20220;-80
2023/03/22 03:34:59;;;;;;;4.30;4.10;;;10.50;99.90;;;;;;10465391;28;20213;-80
2023/03/22 03:40:08;;;;;;;4.87;4.47;;;10.50;99.90;;;;;;10483322;28;20222;-79
2023/03/22 03:45:14;;;;;;;4.50;4.10;;;10.50;99.90;;;;;;10481459;28;20215;-80
2023/03/22 03:50:16;;;;;;;5.00;4.47;;;10.50;99.90;;;;;;10489707;28;20248;-79
2023/03/22 03:55:19;;;;;;;4.37;4.07;;;10.40;99.90;;;;;;10476617;28;20227;-80
2023/03/22 04:00:22;;;;;;;8.50;6.20;;;10.30;99.90;;;;;;10472510;28;20629;-79
2023/03/22 04:06:03;;;;;;;7.53;4.53;;;10.30;99.90;;;;;;10473077;28;20275;-79
2023/03/22 04:11:10;;;;;;;6.03;5.57;;;10.30;99.90;;;;;;10467461;28;20281;-81
2023/03/22 04:16:15;;;;;;;4.50;4.20;;;10.40;99.90;;;;;;10486702;28;20647;-82
2023/03/22 04:21:18;;;;;;;4.27;3.97;;;10.40;99.90;;;;;;10483245;28;20224;-82
2023/03/22 04:26:41;;;;;;;4.70;4.40;;;10.50;99.90;;;;;;10486254;28;20205;-80
2023/03/22 04:31:54;;;;;;;4.47;4.17;;;10.50;99.90;;;;;;10496319;28;20240;-81
2023/03/22 04:37:04;;;;;;;4.87;4.57;;;10.60;99.90;;;;;;10472566;28;20235;-82
2023/03/22 04:42:22;;;;;;;4.67;4.30;;;10.70;99.90;;;;;;10495490;28;20687;-82
2023/03/22 04:47:36;;;;;;;6.80;4.50;;;10.60;99.90;;;;;;10477052;28;20200;-82
2023/03/22 04:52:41;;;;;;;4.30;4.00;;;10.60;99.90;;;;;;10476630;28;20240;-82
2023/03/22 04:57:43;;;;;;;4.80;4.40;;;10.60;99.90;;;;;;10479236;28;20208;-82
2023/03/22 05:02:48;;;;;;;4.70;3.80;;;10.70;99.90;;;;;;10474077;28;20226;-81
2023/03/22 05:07:58;;;;;;;4.27;4.03;;;10.70;99.90;;;;;;10482774;28;20204;-82
2023/03/22 05:13:01;;;;;;;5.10;4.63;;;10.90;99.70;;;;;;10489063;28;20219;-83
2023/03/22 05:18:13;;;;;;;4.60;4.30;;;10.90;99.90;;;;;;10480677;28;20193;-82
2023/03/22 05:23:17;;;;;;;5.20;4.80;;;10.90;99.90;;;;;;10473195;28;20302;-83
2023/03/22 05:28:22;;;;;;;3.83;3.63;;;10.90;99.90;;;;;;10492137;28;20212;-83
2023/03/22 05:33:33;;;;;;;6.30;4.60;;;11.00;99.90;;;;;;10485327;28;20241;-82
2023/03/22 05:38:37;;;;;;;5.20;4.43;;;11.00;99.90;;;;;;10491731;28;20246;-82
2023/03/22 05:43:41;;;;;;;5.30;4.90;;;11.10;99.90;;;;;;10483018;28;20233;-79
2023/03/22 05:48:47;;;;;;;7.17;4.70;;;11.10;99.90;;;;;;10484254;28;20665;-81
2023/03/22 05:53:53;;;;;;;5.37;4.40;;;11.20;99.90;;;;;;10492359;28;20227;-81
2023/03/22 05:58:59;;;;;;;5.10;4.60;;;11.20;99.90;;;;;;10474695;28;20206;-79
2023/03/22 06:04:03;;;;;;;4.57;4.27;;;11.20;99.90;;;;;;10454471;28;20218;-79
2023/03/22 06:09:25;;;;;;;4.70;4.23;;;11.20;99.90;;;;;;10478122;28;20326;-80
2023/03/22 06:14:28;;;;;;;12.60;10.47;;;11.20;99.90;;;;;;10504549;28;20765;-79
2023/03/22 06:19:51;;;;;;;8.10;7.30;;;11.20;99.90;;;;;;10489641;28;20617;-78
2023/03/22 06:24:54;;;;;;;10.30;9.20;;;11.10;99.90;;;;;;10484594;28;20223;-79
2023/03/22 06:30:07;;;;;;;8.40;7.60;;;11.10;99.90;;;;;;10477546;28;20599;-78
2023/03/22 06:35:21;;;;;;;8.53;7.40;;;11.10;99.90;;;;;;10506070;28;20236;-80
2023/03/22 06:40:23;;;;;;;7.63;6.83;;;11.00;99.90;;;;;;10475853;28;20229;-82
2023/03/22 06:45:25;;;;;;;6.73;5.13;;;11.00;99.90;;;;;;10472791;28;20312;-79
2023/03/22 06:50:29;;;;;;;8.20;6.20;;;11.00;99.90;;;;;;10501400;28;20675;-81
2023/03/22 06:55:46;;;;;;;5.47;4.30;;;11.00;99.90;;;;;;10493167;28;20201;-82
2023/03/22 07:00:58;;;;;;;4.00;3.70;;;11.00;99.90;;;;;;10500353;28;21452;-82
2023/03/22 07:06:04;;;;;;;4.63;4.30;;;11.10;99.90;;;;;;10488104;28;20653;-82
2023/03/22 07:11:08;;;;;;;4.73;4.33;;;11.20;99.90;;;;;;10471050;28;20206;-80
2023/03/22 07:16:11;;;;;;;5.27;4.77;;;11.30;99.90;;;;;;10470471;28;20214;-81
2023/03/22 07:21:19;;;;;;;5.63;4.73;;;11.30;99.90;;;;;;10501321;28;20301;-80
2023/03/22 07:26:26;;;;;;;5.10;4.60;;;11.40;99.90;;;;;;10483141;28;20212;-81
2023/03/22 07:31:34;;;;;;;4.20;3.80;;;11.50;99.90;;;;;;10483175;28;20237;-82
2023/03/22 07:36:43;;;;;;;3.60;3.30;;;11.60;99.90;;;;;;10504341;28;20198;-82
2023/03/22 07:41:47;;;;;;;3.60;2.47;;;11.70;99.90;;;;;;10473798;28;20224;-81
2023/03/22 07:46:58;;;;;;;2.90;2.73;;;11.80;97.80;;;;;;10504558;28;20295;-81
2023/03/22 07:52:08;;;;;;;2.73;2.53;;;11.90;97.60;;;;;;10502054;28;20240;-82
2023/03/22 07:57:10;;;;;;;2.80;2.60;;;12.10;97.40;;;;;;10504888;28;20261;-80
2023/03/22 08:02:18;;;;;;;6.33;2.70;;;12.30;96.80;;;;;;10477728;28;20222;-81
2023/03/22 08:07:26;;;;;;;4.13;2.90;;;12.40;96.10;;;;;;10469630;28;20205;-79
2023/03/22 08:12:28;;;;;;;2.47;2.37;;;12.60;95.90;;;;;;10497269;28;20296;-82
2023/03/22 08:17:40;;;;;;;2.80;2.50;;;12.80;95.30;;;;;;10505294;28;20197;-82
2023/03/22 08:22:50;;;;;;;2.20;2.07;;;12.90;96.10;;;;;;10459417;28;20312;-81
2023/03/22 08:28:01;;;;;;;4.43;3.10;;;13.00;96.10;;;;;;10465350;28;20211;-80
2023/03/22 08:33:05;;;;;;;2.30;2.20;;;13.10;96.20;;;;;;10490541;28;20218;-81
2023/03/22 08:38:09;;;;;;;3.27;3.07;;;13.20;96.10;;;;;;10465618;28;20190;-80
2023/03/22 08:43:19;;;;;;;2.73;2.53;;;13.30;96.20;;;;;;10481154;28;20225;-79
2023/03/22 08:48:21;;;;;;;2.07;1.90;;;13.40;95.70;;;;;;10501797;28;20260;-80
2023/03/22 08:53:50;;;;;;;2.60;2.40;;;13.60;95.10;;;;;;10454591;22;20306;-82
2023/03/22 08:59:18;;;;;;;2.10;2.00;;;13.80;95.10;;;;;;10418072;28;20553;-82
2023/03/22 09:04:47;;;;;;;1.97;1.87;;;13.90;95.50;;;;;;10411658;28;20225;-82
2023/03/22 09:09:50;;;;;;;1.97;1.70;;;14.00;95.60;;;;;;10411802;28;20195;-82
2023/03/22 09:14:53;;;;;;;1.90;1.80;;;14.10;95.80;;;;;;10380078;28;20218;-82
2023/03/22 09:19:55;;;;;;;1.60;1.50;;;14.20;95.60;;;;;;10367230;28;20253;-82
2023/03/22 09:24:59;;;;;;;2.03;1.83;;;14.30;95.20;;;;;;10373766;28;20337;-82
2023/03/22 09:30:01;;;;;;;1.63;1.53;;;14.50;94.80;;;;;;10388727;28;20214;-83
2023/03/22 09:35:03;;;;;;;2.03;1.93;;;14.90;94.30;;;;;;10381415;28;20318;-81
2023/03/22 09:40:16;;;;;;;1.63;1.53;;;15.00;94.40;;;;;;10347382;28;20248;-79
2023/03/22 09:45:23;;;;;;;1.77;1.60;;;15.20;94.30;;;;;;10390792;28;20443;-81
2023/03/22 09:50:30;;;;;;;3.23;1.93;;;15.50;93.00;;;;;;10371685;28;20203;-81
2023/03/22 09:55:40;;;;;;;1.90;1.80;;;15.70;92.60;;;;;;10398139;28;20222;-81
2023/03/22 10:00:46;;;;;;;2.07;1.97;;;16.10;91.70;;;;;;10417076;28;20222;-81
2023/03/22 10:05:52;;;;;;;1.87;1.77;;;16.30;91.70;;;;;;10400127;28;20211;-80
2023/03/22 10:10:57;;;;;;;1.60;1.50;;;16.50;91.70;;;;;;10383322;28;20277;-79
2023/03/22 10:16:03;;;;;;;1.50;1.40;;;16.70;91.10;;;;;;10388362;28;20210;-83
2023/03/22 10:21:07;;;;;;;1.97;1.70;;;16.80;91.20;;;;;;10414653;28;20301;-80
2023/03/22 10:26:18;;;;;;;1.83;1.73;;;16.80;91.50;;;;;;10362392;28;20206;-80
2023/03/22 10:31:21;;;;;;;2.17;2.07;;;16.70;92.10;;;;;;10382675;28;20179;-82
2023/03/22 10:36:26;;;;;;;2.03;1.83;;;16.50;90.70;;;;;;10406449;28;20199;-80
2023/03/22 10:41:32;;;;;;;3.23;1.80;;;16.40;90.20;;;;;;10374481;28;20242;-80
2023/03/22 10:46:39;;;;;;;1.83;1.73;;;16.20;91.50;;;;;;10384131;28;20211;-80
2023/03/22 10:51:44;;;;;;;2.40;1.93;;;16.00;92.20;;;;;;10408640;28;20299;-79
2023/03/22 10:56:48;;;;;;;3.00;2.57;;;16.00;91.60;;;;;;10411475;28;20195;-81
2023/03/22 11:01:51;;;;;;;2.13;2.03;;;16.00;92.10;;;;;;10389670;28;20222;-81
2023/03/22 11:06:53;;;;;;;2.10;1.60;;;16.00;92.90;;;;;;10346661;28;20199;-82
2023/03/22 11:11:59;;;;;;;1.73;1.63;;;16.00;93.60;;;;;;10418127;28;20218;-82
2023/03/22 11:17:08;;;;;;;1.60;1.50;;;16.10;92.30;;;;;;10420073;28;20490;-80
2023/03/22 11:22:24;;;;;;;1.60;1.50;;;16.20;92.40;;;;;;10410597;28;20222;-82
2023/03/22 11:27:30;;;;;;;1.40;1.30;;;16.30;91.00;;;;;;10401846;28;20225;-81
2023/03/22 11:32:36;;;;;;;2.17;1.60;;;16.50;90.30;;;;;;10416682;28;20204;-79
2023/03/22 11:37:41;;;;;;;1.23;1.17;;;16.60;90.60;;;;;;10416499;28;20199;-80
2023/03/22 11:42:45;;;;;;;1.60;1.50;;;16.60;90.00;;;;;;10444424;28;20214;-82
2023/03/22 11:47:47;;;;;;;3.33;3.13;;;16.60;87.70;;;;;;10417858;28;20202;-82
2023/03/22 11:52:50;;;;;;;2.37;2.10;;;16.60;86.40;;;;;;10445945;28;20226;-82
2023/03/22 11:57:55;;;;;;;1.57;1.47;;;16.70;85.70;;;;;;10434398;28;20584;-83
2023/03/22 12:03:01;;;;;;;1.80;1.70;;;16.80;87.60;;;;;;10406579;28;20239;-82
2023/03/22 12:08:10;;;;;;;3.17;1.87;;;16.80;86.00;;;;;;10411587;28;20247;-81
2023/03/22 12:13:19;;;;;;;1.60;1.50;;;16.80;84.40;;;;;;10425342;28;20314;-81
2023/03/22 12:18:26;;;;;;;1.50;1.40;;;16.80;85.90;;;;;;10413699;28;20579;-81
2023/03/22 12:23:30;;;;;;;2.10;1.60;;;16.80;81.80;;;;;;10379503;28;20549;-82
2023/03/22 12:28:40;;;;;;;2.33;2.23;;;16.80;80.70;;;;;;10376477;28;20200;-82
2023/03/22 12:33:45;;;;;;;1.93;1.70;;;16.80;82.60;;;;;;10397899;28;20560;-81
2023/03/22 12:38:50;;;;;;;1.30;1.30;;;16.80;79.10;;;;;;10385317;28;20221;-81
2023/03/22 12:43:56;;;;;;;1.50;1.40;;;16.90;80.20;;;;;;10433315;28;20233;-80
2023/03/22 12:49:03;;;;;;;1.60;1.50;;;17.10;74.80;;;;;;10405305;28;20199;-82
2023/03/22 12:54:06;;;;;;;2.50;2.07;;;17.30;77.90;;;;;;10394813;28;20313;-82
2023/03/22 12:59:17;;;;;;;1.20;1.20;;;17.30;78.30;;;;;;10412725;28;20203;-81
2023/03/22 13:04:50;;;;;;;1.60;1.50;;;17.40;77.30;;;;;;10389497;28;20581;-82
2023/03/22 13:09:52;;;;;;;1.83;1.53;;;17.30;78.50;;;;;;10385159;28;20198;-81
2023/03/22 13:14:59;;;;;;;1.50;1.40;;;17.20;80.50;;;;;;10429218;28;20218;-82
2023/03/22 13:20:22;;;;;;;1.50;1.40;;;17.10;81.80;;;;;;10389918;28;20219;-81
2023/03/22 13:25:31;;;;;;;1.30;1.20;;;17.00;78.70;;;;;;10408158;28;20226;-81
2023/03/22 13:30:46;;;;;;;2.00;1.60;;;17.00;76.80;;;;;;10365242;28;20233;-81
2023/03/22 13:35:53;;;;;;;1.60;1.50;;;16.90;78.10;;;;;;10394566;28;20209;-81
2023/03/22 13:41:02;;;;;;;1.33;1.23;;;16.90;79.50;;;;;;10391136;28;20217;-81
2023/03/22 13:46:12;;;;;;;1.80;1.70;;;16.90;79.00;;;;;;10402614;28;20202;-81
2023/03/22 13:51:18;;;;;;;1.60;1.50;;;17.00;80.80;;;;;;10393813;28;20290;-81
2023/03/22 13:56:32;;;;;;;1.80;1.70;;;17.00;78.10;;;;;;10425268;28;20207;-78
2023/03/22 14:01:46;;;;;;;1.87;1.53;;;17.00;78.40;;;;;;10378649;28;20289;-79
2023/03/22 14:06:54;;;;;;;1.50;1.40;;;17.10;75.90;;;;;;10394571;28;20199;-82
2023/03/22 14:12:03;;;;;;;1.60;1.50;;;17.30;75.30;;;;;;10394692;28;20223;-80
2023/03/22 14:17:15;;;;;;;1.30;1.30;;;17.30;75.80;;;;;;10389250;28;20203;-79
2023/03/22 14:22:27;;;;;;;1.20;1.20;;;17.30;75.70;;;;;;10396876;28;20542;-80
2023/03/22 14:27:33;;;;;;;1.47;1.33;;;17.20;74.20;;;;;;10410189;28;20233;-79
2023/03/22 14:32:43;;;;;;;1.10;1.10;;;17.20;74.30;;;;;;10428357;28;21480;-79
2023/03/22 14:37:46;;;;;;;1.20;1.10;;;17.30;74.20;;;;;;10409199;28;20233;-81
2023/03/22 14:42:48;;;;;;;1.40;1.30;;;17.40;72.80;;;;;;10431206;28;20396;-78
2023/03/22 14:47:54;;;;;;;1.30;1.20;;;17.50;74.10;;;;;;10415818;28;20210;-81
2023/03/22 14:52:56;;;;;;;1.50;1.40;;;17.50;75.70;;;;;;10425366;28;20310;-81
2023/03/22 14:58:02;;;;;;;2.40;1.63;;;17.50;75.50;;;;;;10384924;28;20222;-81
2023/03/22 15:03:08;;;;;;;1.70;1.60;;;17.50;75.40;;;;;;10396504;28;20215;-80
2023/03/22 15:08:12;;;;;;;1.57;1.47;;;17.40;76.60;;;;;;10406754;28;20229;-80
2023/03/22 15:13:14;;;;;;;2.77;1.43;;;17.40;75.70;;;;;;10419014;28;20586;-80
2023/03/22 15:18:20;;;;;;;3.63;3.43;;;17.30;75.80;;;;;;10418424;28;20245;-80
2023/03/22 15:23:33;;;;;;;1.97;1.87;;;17.40;76.90;;;;;;10378787;28;20251;-80
2023/03/22 15:28:42;;;;;;;1.60;1.50;;;17.30;75.90;;;;;;10418678;28;20203;-80
2023/03/22 15:33:46;;;;;;;2.23;1.70;;;17.40;77.30;;;;;;10387727;28;20212;-80
2023/03/22 15:38:50;;;;;;;1.50;1.40;;;17.30;82.00;;;;;;10378336;28;20191;-80
2023/03/22 15:44:02;;;;;;;1.50;1.40;;;17.20;80.80;;;;;;10400486;28;20555;-81
2023/03/22 15:49:19;;;;;;;2.67;1.60;;;17.10;81.50;;;;;;10392362;28;20738;-81
2023/03/22 15:54:27;;;;;;;1.40;1.40;;;17.00;81.70;;;;;;10386097;28;20227;-81
2023/03/22 15:59:30;;;;;;;3.40;2.47;;;16.90;80.80;;;;;;10381464;28;20195;-83
2023/03/22 16:04:36;;;;;;;1.70;1.60;;;16.90;79.60;;;;;;10396175;28;20239;-83
2023/03/22 16:09:38;;;;;;;1.70;1.60;;;16.90;77.90;;;;;;10414977;28;20198;-81
2023/03/22 16:14:41;;;;;;;1.93;1.80;;;16.90;77.90;;;;;;10395369;28;20215;-80
2023/03/22 16:19:45;;;;;;;2.13;2.03;;;17.00;77.80;;;;;;10360895;28;20196;-80
2023/03/22 16:24:49;;;;;;;1.73;1.63;;;17.00;77.60;;;;;;10407767;28;20528;-81
2023/03/22 16:29:51;;;;;;;1.97;1.83;;;17.00;77.10;;;;;;10386910;28;20648;-80
2023/03/22 16:34:55;;;;;;;1.70;1.60;;;17.00;77.60;;;;;;10388890;28;20230;-82
2023/03/22 16:39:57;;;;;;;2.07;1.97;;;16.90;76.10;;;;;;10377976;28;20262;-82
2023/03/22 16:44:59;;;;;;;3.70;3.00;;;16.90;78.20;;;;;;10381357;28;20317;-82
2023/03/22 16:50:02;;;;;;;1.80;1.67;;;16.80;77.70;;;;;;10365453;28;20195;-82
2023/03/22 16:55:11;;;;;;;1.70;1.60;;;16.70;78.80;;;;;;10388355;28;20293;-82
2023/03/22 17:00:17;;;;;;;1.97;1.73;;;16.60;80.40;;;;;;10400868;28;20589;-81
2023/03/22 17:05:24;;;;;;;1.73;1.63;;;16.50;80.80;;;;;;10415084;28;20227;-82
2023/03/22 17:10:29;;;;;;;3.00;2.77;;;16.40;83.70;;;;;;10371293;28;20207;-81
2023/03/22 17:15:34;;;;;;;4.00;3.50;;;16.30;80.90;;;;;;10376302;28;20223;-81
2023/03/22 17:20:39;;;;;;;2.17;1.90;;;16.30;83.40;;;;;;10398665;28;20195;-80
2023/03/22 17:25:45;;;;;;;2.43;2.30;;;16.20;83.30;;;;;;10385870;28;20282;-80
2023/03/22 17:30:47;;;;;;;3.00;2.80;;;16.20;83.10;;;;;;10402659;28;20663;-80
2023/03/22 17:35:50;;;;;;;2.70;2.50;;;16.20;83.00;;;;;;10384993;28;20579;-80
2023/03/22 17:40:52;;;;;;;7.33;4.97;;;16.10;84.10;;;;;;10380097;28;20302;-82
2023/03/22 17:45:54;;;;;;;11.03;8.30;;;16.00;84.20;;;;;;10383500;28;20226;-80
2023/03/22 17:50:58;;;;;;;3.20;2.73;;;15.90;84.50;;;;;;10375020;28;20697;-82
2023/03/22 17:56:00;;;;;;;3.17;2.97;;;15.80;85.10;;;;;;10370797;28;20226;-81
2023/03/22 18:01:03;;;;;;;3.20;3.00;;;15.70;84.90;;;;;;10367248;28;20206;-83
2023/03/22 18:06:07;;;;;;;3.87;3.57;;;15.60;85.50;;;;;;10397627;28;20654;-81
2023/03/22 18:11:11;;;;;;;4.60;3.57;;;15.50;85.90;;;;;;10369040;28;20231;-80
2023/03/22 18:16:13;;;;;;;3.00;2.80;;;15.40;86.20;;;;;;10382431;28;20218;-80
2023/03/22 18:21:17;;;;;;;3.50;3.00;;;15.30;86.80;;;;;;10407471;28;20199;-81
2023/03/22 18:26:19;;;;;;;3.33;3.03;;;15.20;87.20;;;;;;10393659;28;20226;-81
2023/03/22 18:31:21;;;;;;;4.30;3.63;;;15.10;88.10;;;;;;10391765;28;20610;-80
2023/03/22 18:36:25;;;;;;;5.00;3.20;;;15.00;88.30;;;;;;10397066;28;20629;-81
2023/03/22 18:41:27;;;;;;;3.60;3.30;;;14.90;88.40;;;;;;10364453;28;20225;-83
2023/03/22 18:46:29;;;;;;;62.97;36.07;;;14.80;89.00;;;;;;10385980;28;20613;-81
2023/03/22 18:51:33;;;;;;;7.90;6.57;;;14.70;89.40;;;;;;10380128;28;20520;-81
2023/03/22 18:56:35;;;;;;;15.80;4.90;;;14.70;90.00;;;;;;10406777;28;20201;-82
2023/03/22 19:01:37;;;;;;;4.67;4.27;;;14.60;89.90;;;;;;10407083;28;20225;-82
2023/03/22 19:06:43;;;;;;;3.90;3.50;;;14.60;89.70;;;;;;10417036;28;20210;-83
2023/03/22 19:11:45;;;;;;;3.30;3.03;;;14.50;90.00;;;;;;10402875;28;20443;-83
2023/03/22 19:16:47;;;;;;;3.87;3.57;;;14.50;90.00;;;;;;10411049;28;20548;-82
2023/03/22 19:21:51;;;;;;;4.97;4.33;;;14.40;90.00;;;;;;10411555;28;20291;-80
2023/03/22 19:26:54;;;;;;;14.93;9.80;;;14.40;90.00;;;;;;10421532;28;20258;-80
2023/03/22 19:31:57;;;;;;;10.70;7.37;;;14.40;89.50;;;;;;10399263;28;20211;-81
2023/03/22 19:37:01;;;;;;;7.00;5.73;;;14.40;89.70;;;;;;10396453;28;20202;-82
2023/03/22 19:42:04;;;;;;;4.97;3.50;;;14.40;89.40;;;;;;10419978;28;20245;-82
2023/03/22 19:47:07;;;;;;;3.90;3.40;;;14.40;89.20;;;;;;10375523;28;20225;-81
2023/03/22 19:52:11;;;;;;;4.10;3.50;;;14.40;89.90;;;;;;10390985;28;20226;-83
2023/03/22 19:57:13;;;;;;;5.20;4.80;;;14.50;89.30;;;;;;10398333;28;20194;-84
2023/03/22 20:02:16;;;;;;;6.07;5.57;;;14.50;89.40;;;;;;10397541;28;20642;-82
2023/03/22 20:07:23;;;;;;;7.20;6.50;;;14.40;89.60;;;;;;10392581;28;20710;-82
2023/03/22 20:12:26;;;;;;;4.93;4.53;;;14.50;88.90;;;;;;10376327;28;20218;-82
2023/03/22 20:17:28;;;;;;;4.70;3.80;;;14.40;89.30;;;;;;10399019;28;20230;-82
2023/03/22 20:22:31;;;;;;;4.07;3.60;;;14.40;89.70;;;;;;10383581;28;20242;-83
2023/03/22 20:27:33;;;;;;;11.93;4.07;;;14.40;89.50;;;;;;10398745;28;20196;-82
2023/03/22 20:32:35;;;;;;;7.40;6.70;;;14.30;88.90;;;;;;10400429;28;20267;-82
2023/03/22 20:37:40;;;;;;;10.03;6.37;;;14.30;89.40;;;;;;10421172;28;20194;-82
2023/03/22 20:42:42;;;;;;;5.63;3.60;;;14.30;89.20;;;;;;10399726;28;20246;-83
2023/03/22 20:47:44;;;;;;;10.40;8.80;;;14.20;89.50;;;;;;10363101;28;20638;-84
2023/03/22 20:52:48;;;;;;;4.07;3.63;;;14.20;90.00;;;;;;10386026;28;20314;-83
2023/03/22 20:57:50;;;;;;;4.07;3.77;;;14.20;89.00;;;;;;10424588;28;20225;-82
2023/03/22 21:02:53;;;;;;;6.50;4.57;;;14.20;89.50;;;;;;10390620;28;20627;-83
2023/03/22 21:07:56;;;;;;;8.90;5.30;;;14.20;89.80;;;;;;10380905;28;20199;-82
2023/03/22 21:12:59;;;;;;;12.43;9.70;;;14.20;89.50;;;;;;10395700;28;20667;-83
2023/03/22 21:18:01;;;;;;;5.93;5.43;;;14.20;89.40;;;;;;10400350;28;20215;-83
2023/03/22 21:23:04;;;;;;;5.10;4.60;;;14.20;89.60;;;;;;10381876;28;20268;-82
2023/03/22 21:28:07;;;;;;;4.03;3.40;;;14.20;89.60;;;;;;10351450;28;20203;-83
2023/03/22 21:33:09;;;;;;;3.10;2.60;;;14.20;89.10;;;;;;10375464;28;20242;-82
2023/03/22 21:38:16;;;;;;;2.67;2.47;;;14.30;88.70;;;;;;10376497;28;20253;-83
2023/03/22 21:43:19;;;;;;;5.53;4.60;;;14.30;89.10;;;;;;10366844;28;20265;-83
2023/03/22 21:48:22;;;;;;;2.43;2.20;;;14.30;88.50;;;;;;10415240;28;20237;-83
2023/03/22 21:53:26;;;;;;;2.80;2.60;;;14.30;88.10;;;;;;10397134;28;20222;-83
2023/03/22 21:58:28;;;;;;;2.30;2.10;;;14.40;88.00;;;;;;10375602;28;20206;-85
2023/03/22 22:03:31;;;;;;;12.43;11.33;;;14.40;87.60;;;;;;10386315;28;20306;-83
2023/03/22 22:08:35;;;;;;;4.80;3.43;;;14.40;87.40;;;;;;10373096;28;20545;-82
2023/03/22 22:13:37;;;;;;;2.30;2.20;;;14.50;86.30;;;;;;10398368;28;20215;-82
2023/03/22 22:18:40;;;;;;;9.27;3.20;;;14.50;86.50;;;;;;10414842;28;20206;-83
2023/03/22 22:23:45;;;;;;;3.10;2.90;;;14.60;86.30;;;;;;10403963;28;20211;-82
2023/03/22 22:28:54;;;;;;;2.70;2.50;;;14.70;86.30;;;;;;10405742;28;20221;-82
2023/03/22 22:33:58;;;;;;;3.00;2.80;;;14.70;86.40;;;;;;10408485;28;20210;-82
2023/03/22 22:39:03;;;;;;;3.10;2.83;;;14.70;86.70;;;;;;10406708;28;20205;-82
2023/03/22 22:44:05;;;;;;;3.43;3.20;;;14.70;90.30;;;;;;10391640;28;20273;-85
2023/03/22 22:49:07;;;;;;;3.77;3.37;;;14.70;91.10;;;;;;10390967;28;20202;-83
2023/03/22 22:54:11;;;;;;;3.47;3.20;;;14.70;86.30;;;;;;10392800;28;20310;-83
2023/03/22 22:59:13;;;;;;;2.73;2.50;;;14.70;86.30;;;;;;10375015;28;20238;-82
2023/03/22 23:04:15;;;;;;;3.90;3.53;;;14.70;87.00;;;;;;10371353;28;20219;-83
2023/03/22 23:09:23;;;;;;;3.57;3.20;;;14.70;89.40;;;;;;10379259;28;20293;-83
2023/03/22 23:14:29;;;;;;;5.17;2.60;;;14.70;86.50;;;;;;10406088;28;20339;-83
2023/03/22 23:19:36;;;;;;;2.50;2.30;;;14.70;86.70;;;;;;10423255;28;20265;-81
2023/03/22 23:24:42;;;;;;;2.53;2.33;;;14.80;86.10;;;;;;10419705;28;20230;-83
2023/03/22 23:29:45;;;;;;;2.40;2.20;;;14.80;86.40;;;;;;10410436;28;20249;-84
2023/03/22 23:34:48;;;;;;;3.33;2.23;;;14.80;86.00;;;;;;10407583;28;20227;-82
2023/03/22 23:39:51;;;;;;;2.57;2.30;;;14.70;86.40;;;;;;10374958;28;20577;-82
2023/03/22 23:44:54;;;;;;;1.80;1.70;;;14.70;86.70;;;;;;10391645;28;20265;-83
2023/03/22 23:49:57;;;;;;;4.60;2.40;;;14.60;87.70;;;;;;10392471;28;20203;-84
2023/03/22 23:55:00;;;;;;;2.80;2.60;;;14.60;88.20;;;;;;10402991;28;20218;-82
